createdAt,value
2023-03-23T15:58:37.033Z,18.68
2023-03-23T16:01:12.613Z,18.20
2023-03-23T16:03:44.794Z,17.39
2023-03-23T16:06:23.638Z,17.29
2023-03-23T16:08:56.779Z,16.25
2023-03-23T16:11:27.843Z,16.11
2023-03-23T16:13:55.989Z,15.80
2023-03-23T16:16:27.416Z,15.90
2023-03-23T16:18:55.080Z,15.32
2023-03-23T16:21:23.212Z,15.62
2023-03-23T16:23:50.998Z,15.69
2023-03-23T16:26:18.853Z,15.60
2023-03-23T16:28:46.531Z,15.34
2023-03-23T16:31:14.199Z,15.10
2023-03-23T16:33:41.773Z,15.05
2023-03-23T16:36:12.547Z,14.94
2023-03-23T16:38:49.801Z,14.95
2023-03-23T16:41:19.226Z,14.74
2023-03-23T16:43:46.845Z,14.62
2023-03-23T16:46:14.415Z,14.44
2023-03-23T16:48:42.303Z,14.25
2023-03-23T16:51:10.036Z,14.06
2023-03-23T16:53:37.800Z,13.77
2023-03-23T16:56:06.234Z,13.69
2023-03-23T16:58:33.511Z,13.67
2023-03-23T17:01:01.466Z,13.53
2023-03-23T17:03:30.008Z,13.48
2023-03-23T17:06:00.035Z,13.31
2023-03-23T17:08:28.262Z,13.01
2023-03-23T17:10:56.257Z,13.02
2023-03-23T17:13:25.658Z,13.03
2023-03-23T17:15:54.724Z,12.87
2023-03-23T17:18:23.821Z,12.84
2023-03-23T17:20:54.000Z,12.70
2023-03-23T17:23:21.925Z,12.64
2023-03-23T17:25:50.613Z,12.50
2023-03-23T17:28:19.673Z,12.40
2023-03-23T17:30:49.160Z,12.13
2023-03-23T17:33:16.534Z,12.05
2023-03-23T17:35:47.078Z,12.11
2023-03-23T17:38:15.056Z,11.95
2023-03-23T17:40:42.363Z,11.74
2023-03-23T17:43:09.747Z,11.68
2023-03-23T17:45:37.820Z,11.05
2023-03-23T17:48:08.050Z,10.95
2023-03-23T17:50:36.261Z,10.95
2023-03-23T17:53:04.689Z,11.15
2023-03-23T17:55:32.104Z,11.02
2023-03-23T17:57:59.492Z,11.11
2023-03-23T18:00:27.279Z,10.90
2023-03-23T18:02:56.669Z,10.84
2023-03-23T18:05:24.758Z,10.82
2023-03-23T18:07:52.092Z,10.93
2023-03-23T18:10:20.895Z,10.76
2023-03-23T18:12:51.386Z,10.52
2023-03-23T18:15:18.831Z,10.46
2023-03-23T18:17:48.440Z,10.28
2023-03-23T18:20:16.735Z,10.02
2023-03-23T18:22:44.139Z,9.66
2023-03-23T18:25:11.849Z,9.92
2023-03-23T18:27:39.122Z,10.09
2023-03-23T18:30:08.059Z,10.11
2023-03-23T18:32:39.427Z,10.05
2023-03-23T18:35:08.528Z,9.71
2023-03-23T18:37:37.140Z,9.31
2023-03-23T18:40:05.740Z,9.63
2023-03-23T18:42:33.172Z,9.63
2023-03-23T18:45:00.968Z,9.27
2023-03-23T18:47:28.514Z,9.33
2023-03-23T18:49:56.207Z,9.18
2023-03-23T18:52:26.701Z,9.28
2023-03-23T18:54:55.218Z,9.17
2023-03-23T18:57:23.804Z,9.45
2023-03-23T18:59:51.598Z,9.44
2023-03-23T19:02:19.374Z,9.46
2023-03-23T19:04:48.414Z,9.44
2023-03-23T19:07:17.426Z,9.18
2023-03-23T19:09:46.880Z,9.10
2023-03-23T19:12:15.894Z,9.14
2023-03-23T19:14:43.909Z,8.87
2023-03-23T19:17:11.465Z,8.96
2023-03-23T19:19:39.064Z,9.03
2023-03-23T19:22:08.746Z,8.82
2023-03-23T19:24:37.743Z,8.55
2023-03-23T19:27:05.903Z,8.38
2023-03-23T19:29:36.252Z,8.61
2023-03-23T19:32:03.652Z,8.50
2023-03-23T19:34:31.339Z,8.54
2023-03-23T19:37:05.364Z,8.48
2023-03-23T19:39:34.495Z,8.28
2023-03-23T19:42:02.258Z,8.28
2023-03-23T19:44:29.878Z,8.13
2023-03-23T19:46:57.756Z,8.15
2023-03-23T19:49:26.727Z,8.42
2023-03-23T19:52:08.960Z,8.36
2023-03-23T19:54:41.174Z,8.25
2023-03-23T19:57:10.261Z,8.02
2023-03-23T19:59:39.088Z,8.08
2023-03-23T20:02:08.270Z,8.02
2023-03-23T20:04:36.645Z,8.13
2023-03-23T20:07:07.457Z,7.81
2023-03-23T20:09:36.041Z,7.78
2023-03-23T20:12:04.988Z,7.84
2023-03-23T20:14:33.009Z,7.73
2023-03-23T20:17:00.674Z,7.81
2023-03-23T20:19:28.661Z,7.76
2023-03-23T20:21:56.432Z,7.68
2023-03-23T20:24:23.893Z,7.85
2023-03-23T20:26:51.974Z,7.62
2023-03-23T20:29:19.497Z,7.63
2023-03-23T20:31:46.933Z,7.58
2023-03-23T20:34:31.073Z,7.56
2023-03-23T20:37:00.492Z,7.73
2023-03-23T20:39:31.135Z,7.53
2023-03-23T20:42:03.671Z,7.22
2023-03-23T20:44:35.079Z,7.15
2023-03-23T20:47:03.464Z,7.33
2023-03-23T20:49:32.155Z,7.35
2023-03-23T20:52:00.101Z,7.17
2023-03-23T20:54:28.158Z,7.22
2023-03-23T20:56:57.798Z,7.21
2023-03-23T20:59:25.504Z,7.19
2023-03-23T21:01:53.014Z,7.15
2023-03-23T21:04:23.267Z,7.08
2023-03-23T21:06:52.095Z,6.99
2023-03-23T21:09:20.283Z,7.14
2023-03-23T21:11:49.123Z,6.99
2023-03-23T21:14:17.276Z,6.93
2023-03-23T21:16:45.136Z,6.89
2023-03-23T21:19:13.272Z,6.80
2023-03-23T21:21:56.593Z,6.82
2023-03-23T21:24:30.861Z,6.65
2023-03-23T21:27:00.783Z,6.69
2023-03-23T21:29:29.099Z,6.61
2023-03-23T21:34:28.201Z,6.48
2023-03-23T21:36:55.693Z,6.49
2023-03-23T21:39:23.491Z,6.00
2023-03-23T21:41:51.281Z,5.89
2023-03-23T21:44:18.732Z,5.87
2023-03-23T21:46:46.083Z,6.07
2023-03-23T21:49:14.611Z,6.07
2023-03-23T21:51:43.447Z,6.04
2023-03-23T21:54:11.905Z,5.96
2023-03-23T21:56:40.065Z,5.71
2023-03-23T21:59:07.893Z,5.81
2023-03-23T22:01:40.631Z,5.86
2023-03-23T22:04:08.657Z,5.92
2023-03-23T22:06:36.581Z,6.02
2023-03-23T22:09:05.660Z,6.05
2023-03-23T22:11:33.914Z,5.62
2023-03-23T22:14:04.328Z,5.43
2023-03-23T22:16:32.120Z,5.06
2023-03-23T22:19:02.267Z,5.30
2023-03-23T22:21:31.366Z,5.38
2023-03-23T22:24:00.786Z,5.30
2023-03-23T22:26:29.929Z,5.43
2023-03-23T22:28:58.750Z,5.54
2023-03-23T22:31:29.733Z,5.56
2023-03-23T22:33:57.899Z,5.16
2023-03-23T22:36:27.158Z,5.26
2023-03-23T22:38:55.793Z,5.16
2023-03-23T22:41:26.884Z,5.08
2023-03-23T22:43:54.927Z,5.23
2023-03-23T22:46:23.511Z,5.35
2023-03-23T22:48:51.244Z,5.39
2023-03-23T22:51:20.546Z,5.33
2023-03-23T22:53:49.873Z,5.32
2023-03-23T22:56:18.270Z,5.28
2023-03-23T22:58:46.128Z,5.24
2023-03-23T23:01:18.048Z,5.09
2023-03-23T23:03:46.162Z,5.00
2023-03-23T23:06:15.820Z,5.19
2023-03-23T23:08:44.283Z,5.04
2023-03-23T23:11:14.992Z,5.10
2023-03-23T23:13:43.423Z,5.09
2023-03-23T23:16:13.157Z,5.03
2023-03-23T23:18:40.884Z,4.98
2023-03-23T23:21:14.337Z,5.03
2023-03-23T23:27:18.278Z,4.87
2023-03-23T23:29:47.303Z,4.87
2023-03-23T23:32:14.672Z,4.56
2023-03-23T23:34:42.044Z,4.66
2023-03-23T23:37:09.745Z,4.59
2023-03-23T23:39:38.564Z,4.56
2023-03-23T23:42:06.071Z,4.67
2023-03-23T23:44:33.837Z,4.56
2023-03-23T23:47:02.103Z,4.56
2023-03-23T23:49:29.678Z,4.62
2023-03-23T23:51:58.540Z,4.56
2023-03-23T23:54:30.485Z,4.55
2023-03-23T23:56:59.594Z,4.46
2023-03-23T23:59:27.337Z,4.49
